ilmateenistus.ee keskkonnaagentuur.ee
EETN Tallinn
FTEO31 EETN 061700 AAA
TAF AMD EETN 062015Z 0620/0718 19005KT 9999 SCT030CB TEMPO 0620/0704
    0800 BCFG BKN003 PROB40 TEMPO 0621/0624 SHRA BECMG 0707/0709 27012KT
    TEMPO 0708/0716 3000 SHRA SCT010 BKN025CB=

METAR EETN 062120Z 18004KT 9999 FEW030 13/12 Q1010 NOSIG=
Tallinn
EEKA Kärdla
METAR EEKA 062120Z NIL=
Kärdla
EEKE Kuressaare
METAR EEKE 062120Z AUTO 22007KT 9999NDV FEW013 17/13 Q1011=
Kuressaare
EEPU Pärnu
METAR EEPU 062120Z AUTO 25006KT 9999 FEW110/// 15/11 Q1011=
Pärnu
EETU Tartu
METAR EETU 062120Z AUTO 22006KT 9999 OVC098/// 15/12 Q1011=
Tartu
EEEI Ämari
METAR EEEI 062050Z AUTO VRB02KT CAVOK 14/11 Q1010=
Ämari